Time;durP1;ratioP1;P1;durP2;ratioP2;P2;SDS_P1;SDS_P2;PMS_P1;PMS_P2;Temp;Humidity;BMP_temperature;BMP_pressure;BME280_temperature;BME280_humidity;BME280_pressure;Samples;Min_cycle;Max_cycle;Signal;HPM_P1;HPM_P2
2023/02/10 00:01:32;;;;;;;42.83;18.75;;;3.70;73.90;;;;;;9178147;19;19951;-60
2023/02/10 00:04:36;;;;;;;41.50;17.52;;;3.60;73.80;;;;;;9180511;19;20029;-62
2023/02/10 00:07:42;;;;;;;38.72;17.25;;;3.60;73.80;;;;;;9180603;19;20018;-63
2023/02/10 00:10:46;;;;;;;40.95;18.50;;;3.60;73.90;;;;;;9178668;19;20171;-63
2023/02/10 00:13:54;;;;;;;39.05;17.75;;;3.50;73.90;;;;;;9180199;19;20021;-63
2023/02/10 00:16:59;;;;;;;43.70;17.98;;;3.50;73.90;;;;;;9180936;19;20026;-64
2023/02/10 00:20:06;;;;;;;45.65;18.00;;;3.40;73.90;;;;;;9175570;19;20010;-61
2023/02/10 00:23:10;;;;;;;41.53;16.65;;;3.40;73.90;;;;;;9176897;19;20455;-61
2023/02/10 00:26:16;;;;;;;35.05;17.30;;;3.40;73.90;;;;;;9178062;19;20018;-62
2023/02/10 00:29:22;;;;;;;35.53;16.38;;;3.30;74.00;;;;;;9178430;19;20393;-60
2023/02/10 00:32:28;;;;;;;35.95;17.05;;;3.30;74.00;;;;;;9179385;19;20011;-61
2023/02/10 00:35:32;;;;;;;36.42;17.35;;;3.30;74.00;;;;;;9179293;19;20038;-60
2023/02/10 00:38:39;;;;;;;35.22;16.90;;;3.20;74.00;;;;;;9178734;19;20020;-60
2023/02/10 00:41:44;;;;;;;42.63;17.45;;;3.20;74.00;;;;;;9177540;19;20086;-62
2023/02/10 00:44:52;;;;;;;35.55;16.55;;;3.10;74.00;;;;;;9179132;19;20029;-62
2023/02/10 00:47:56;;;;;;;47.22;16.90;;;3.10;74.00;;;;;;9178676;19;20019;-63
2023/02/10 00:51:02;;;;;;;40.10;16.83;;;3.10;74.10;;;;;;9178595;19;20010;-63
2023/02/10 00:54:06;;;;;;;46.90;17.10;;;3.00;74.00;;;;;;9178388;19;20021;-63
2023/02/10 00:57:12;;;;;;;36.70;15.57;;;3.00;74.10;;;;;;9178914;19;20014;-61
2023/02/10 01:00:20;;;;;;;36.50;16.92;;;2.90;74.10;;;;;;9178178;19;20019;-63
2023/02/10 01:03:26;;;;;;;36.38;16.48;;;2.90;74.10;;;;;;9173955;19;20010;-59
2023/02/10 01:06:30;;;;;;;43.55;16.63;;;2.90;74.10;;;;;;9178331;19;20760;-63
2023/02/10 01:09:36;;;;;;;41.35;16.98;;;2.80;74.10;;;;;;9176209;19;20017;-61
2023/02/10 01:12:43;;;;;;;;;;;2.80;74.10;;;;;;9179317;19;20029;-62
2023/02/10 01:15:50;;;;;;;31.85;15.60;;;2.80;74.20;;;;;;9178439;19;19917;-64
2023/02/10 01:18:54;;;;;;;40.53;15.93;;;2.70;74.10;;;;;;9174240;19;20021;-62
2023/02/10 01:22:00;;;;;;;39.97;15.82;;;2.70;74.10;;;;;;9176867;19;20019;-60
2023/02/10 01:25:05;;;;;;;36.85;15.27;;;2.70;74.20;;;;;;9173636;19;20028;-62
2023/02/10 01:28:11;;;;;;;29.95;15.13;;;2.60;74.20;;;;;;9176999;19;20490;-63
2023/02/10 01:31:20;;;;;;;44.58;16.02;;;2.60;74.30;;;;;;9177535;19;20024;-61
2023/02/10 01:34:26;;;;;;;42.40;16.23;;;2.50;74.30;;;;;;9177274;19;20011;-63
2023/02/10 01:37:30;;;;;;;38.42;15.90;;;2.50;74.40;;;;;;9177285;19;20025;-61
2023/02/10 01:40:36;;;;;;;32.40;15.30;;;2.50;74.30;;;;;;9177474;19;20078;-62
2023/02/10 01:43:59;;;;;;;33.75;15.85;;;2.50;74.40;;;;;;9176825;19;20096;-64
2023/02/10 01:47:08;;;;;;;38.45;16.15;;;2.40;74.40;;;;;;9176871;19;20019;-62
2023/02/10 01:50:12;;;;;;;38.58;16.17;;;2.40;74.40;;;;;;9179028;19;20035;-61
2023/02/10 01:53:18;;;;;;;42.30;18.23;;;2.40;74.40;;;;;;9184708;19;20490;-61
2023/02/10 01:56:24;;;;;;;35.45;16.70;;;2.40;74.60;;;;;;9184625;19;20107;-62
2023/02/10 01:59:34;;;;;;;40.58;17.38;;;2.40;74.60;;;;;;9182796;19;20015;-61
2023/02/10 02:02:45;;;;;;;44.17;17.63;;;2.40;74.70;;;;;;9182994;19;20025;-61
2023/02/10 02:05:50;;;;;;;39.80;16.00;;;2.30;74.60;;;;;;9184213;19;20015;-61
2023/02/10 02:08:57;;;;;;;37.88;17.20;;;2.30;74.70;;;;;;9185186;19;20457;-62
2023/02/10 02:12:14;;;;;;;46.88;17.90;;;2.30;74.70;;;;;;9182385;19;20010;-61
2023/02/10 02:15:27;;;;;;;36.28;15.98;;;2.30;74.80;;;;;;9184104;19;20022;-62
2023/02/10 02:18:43;;;;;;;40.08;17.00;;;2.30;74.90;;;;;;9178274;19;20010;-61
2023/02/10 02:22:29;;;;;;;36.03;16.35;;;2.30;74.90;;;;;;9182584;19;20011;-62
2023/02/10 02:25:45;;;;;;;40.38;15.88;;;2.30;75.10;;;;;;9183549;19;20483;-62
2023/02/10 02:28:57;;;;;;;;;;;2.30;74.90;;;;;;9184470;19;20021;-62
2023/02/10 02:32:07;;;;;;;34.33;16.33;;;2.30;75.00;;;;;;9184141;19;19929;-61
2023/02/10 02:35:15;;;;;;;32.05;16.50;;;2.30;74.80;;;;;;9183623;19;20019;-62
2023/02/10 02:38:21;;;;;;;35.75;16.27;;;2.30;74.90;;;;;;9182573;19;20015;-61
2023/02/10 02:41:26;;;;;;;41.25;16.33;;;2.30;75.00;;;;;;9182602;19;20014;-61
2023/02/10 02:44:32;;;;;;;36.75;16.63;;;2.30;75.10;;;;;;9180660;19;20010;-62
2023/02/10 02:47:53;;;;;;;31.80;16.75;;;2.30;75.00;;;;;;9182794;19;20023;-62
2023/02/10 02:51:06;;;;;;;42.53;18.03;;;2.20;75.00;;;;;;9181422;19;20007;-63
2023/02/10 02:54:18;;;;;;;41.38;16.60;;;2.30;75.10;;;;;;9180924;19;20019;-61
2023/02/10 02:57:34;;;;;;;37.45;16.17;;;2.20;75.00;;;;;;9182623;19;20018;-61
2023/02/10 03:00:39;;;;;;;40.63;16.10;;;2.20;75.10;;;;;;9181952;19;20023;-62
2023/02/10 03:03:47;;;;;;;38.25;16.73;;;2.20;75.10;;;;;;9179011;19;20356;-62
2023/02/10 03:06:51;;;;;;;45.90;17.38;;;2.20;75.10;;;;;;9182459;19;20022;-62
2023/02/10 03:09:57;;;;;;;42.60;17.00;;;2.20;75.10;;;;;;9180972;19;20018;-61
2023/02/10 03:13:01;;;;;;;36.75;15.93;;;2.20;75.20;;;;;;9181769;19;20018;-61
2023/02/10 03:16:07;;;;;;;40.80;17.17;;;2.20;75.20;;;;;;9180030;19;20002;-63
2023/02/10 03:19:13;;;;;;;40.38;16.35;;;2.20;75.30;;;;;;9177783;19;20026;-64
2023/02/10 03:22:19;;;;;;;35.53;15.43;;;2.20;75.30;;;;;;9180091;19;20014;-61
2023/02/10 03:25:22;;;;;;;;;;;2.20;75.30;;;;;;9182973;19;20025;-61
2023/02/10 03:28:29;;;;;;;41.67;16.50;;;2.20;75.40;;;;;;9181471;19;20265;-62
2023/02/10 03:31:33;;;;;;;35.67;16.67;;;2.20;75.20;;;;;;9182087;19;20392;-62
2023/02/10 03:34:42;;;;;;;36.90;16.10;;;2.20;75.30;;;;;;9181451;19;20021;-62
2023/02/10 03:37:45;;;;;;;46.25;17.13;;;2.20;75.40;;;;;;9182339;19;20014;-62
2023/02/10 03:40:52;;;;;;;38.42;16.95;;;2.20;75.40;;;;;;9181386;19;20015;-61
2023/02/10 03:43:56;;;;;;;38.67;16.58;;;2.20;76.10;;;;;;9177859;19;20497;-61
2023/02/10 03:47:02;;;;;;;40.80;17.17;;;2.20;75.60;;;;;;9181172;19;20371;-61
2023/02/10 03:50:08;;;;;;;39.83;16.40;;;2.10;75.50;;;;;;9180594;19;20105;-62
2023/02/10 03:53:14;;;;;;;35.80;15.98;;;2.10;75.50;;;;;;9180812;19;20034;-62
2023/02/10 03:56:17;;;;;;;43.42;15.63;;;2.10;75.50;;;;;;9181052;19;20026;-63
2023/02/10 03:59:23;;;;;;;38.30;16.40;;;2.10;75.50;;;;;;9180148;19;20022;-61
2023/02/10 04:02:27;;;;;;;36.25;15.93;;;2.20;75.60;;;;;;9178742;19;20022;-62
2023/02/10 04:05:35;;;;;;;42.00;15.57;;;2.20;75.70;;;;;;9179970;19;20486;-61
2023/02/10 04:08:40;;;;;;;41.65;15.70;;;2.20;75.70;;;;;;9180659;19;20017;-62
2023/02/10 04:11:46;;;;;;;36.05;16.23;;;2.20;75.70;;;;;;9175922;19;20018;-59
2023/02/10 04:14:50;;;;;;;35.42;14.98;;;2.10;75.70;;;;;;9179142;19;20108;-61
2023/02/10 04:17:56;;;;;;;36.67;16.85;;;2.10;75.70;;;;;;9180217;19;20014;-62
2023/02/10 04:21:02;;;;;;;36.60;16.17;;;2.10;75.70;;;;;;9174932;19;20045;-61
2023/02/10 04:24:08;;;;;;;32.13;14.93;;;2.10;75.80;;;;;;9178974;19;20014;-62
2023/02/10 04:27:12;;;;;;;33.90;15.48;;;2.10;75.80;;;;;;9178687;19;20022;-61
2023/02/10 04:30:18;;;;;;;33.15;16.05;;;2.10;75.80;;;;;;9178943;19;20014;-61
2023/02/10 04:33:24;;;;;;;35.72;16.38;;;2.10;75.80;;;;;;9178727;19;20110;-62
2023/02/10 04:36:32;;;;;;;37.17;15.68;;;2.10;75.90;;;;;;9178296;19;20018;-61
2023/02/10 04:39:36;;;;;;;28.50;14.48;;;2.10;76.50;;;;;;9178524;19;20498;-62
2023/02/10 04:42:42;;;;;;;33.40;15.82;;;2.10;76.00;;;;;;9176594;19;20018;-62
2023/02/10 04:45:46;;;;;;;32.88;15.02;;;2.00;75.90;;;;;;9178909;19;20010;-61
2023/02/10 04:48:52;;;;;;;31.55;15.63;;;2.00;75.90;;;;;;9178472;19;20017;-60
2023/02/10 04:51:58;;;;;;;27.73;14.68;;;2.00;75.90;;;;;;9178454;19;20014;-60
2023/02/10 04:55:04;;;;;;;30.05;13.57;;;2.00;75.90;;;;;;9178396;19;20015;-61
2023/02/10 04:58:08;;;;;;;26.70;12.98;;;2.00;75.90;;;;;;9178732;19;20081;-62
2023/02/10 05:01:14;;;;;;;28.42;13.93;;;1.90;75.90;;;;;;9178505;19;20014;-62
2023/02/10 05:04:18;;;;;;;31.13;14.80;;;1.90;75.90;;;;;;9178050;19;20018;-62
2023/02/10 05:07:26;;;;;;;27.02;12.95;;;1.90;75.90;;;;;;9176633;19;20007;-61
2023/02/10 05:10:30;;;;;;;25.45;13.05;;;1.90;76.00;;;;;;9176672;19;20014;-62
2023/02/10 05:13:36;;;;;;;24.10;13.13;;;1.90;76.00;;;;;;9177528;19;20029;-63
2023/02/10 05:16:40;;;;;;;23.77;13.63;;;1.80;76.00;;;;;;9177565;19;20018;-63
2023/02/10 05:19:46;;;;;;;29.05;14.30;;;1.80;76.00;;;;;;9173670;19;20018;-63
2023/02/10 05:22:52;;;;;;;26.17;13.55;;;1.80;76.00;;;;;;9176468;19;20011;-61
2023/02/10 05:25:57;;;;;;;25.40;12.82;;;1.80;76.10;;;;;;9175559;19;20033;-62
2023/02/10 05:29:02;;;;;;;23.73;12.73;;;1.80;76.10;;;;;;9177650;19;20098;-61
2023/02/10 05:32:07;;;;;;;25.90;13.43;;;1.80;76.10;;;;;;9176852;19;20030;-62
2023/02/10 05:35:12;;;;;;;26.17;14.32;;;1.70;76.10;;;;;;9177433;19;20088;-60
2023/02/10 05:38:19;;;;;;;27.55;14.55;;;1.70;76.10;;;;;;9177140;19;20360;-60
2023/02/10 05:41:23;;;;;;;28.05;14.20;;;1.70;76.20;;;;;;9176821;19;20011;-62
2023/02/10 05:44:31;;;;;;;33.08;14.25;;;1.70;76.20;;;;;;9176786;19;20010;-61
2023/02/10 05:47:35;;;;;;;25.20;14.02;;;1.70;76.20;;;;;;9176834;19;20018;-62
2023/02/10 05:50:41;;;;;;;30.98;14.73;;;1.70;76.30;;;;;;9176912;19;20022;-60
2023/02/10 05:53:53;;;;;;;27.98;13.95;;;1.70;76.30;;;;;;9176379;19;20023;-62
2023/02/10 05:56:59;;;;;;;30.35;14.60;;;1.60;76.30;;;;;;9176255;19;20049;-60
2023/02/10 06:00:04;;;;;;;30.38;14.50;;;1.60;76.30;;;;;;9176748;19;20014;-60
2023/02/10 06:03:17;;;;;;;27.77;14.73;;;1.60;76.40;;;;;;9173954;19;20020;-61
2023/02/10 06:06:21;;;;;;;30.23;15.30;;;1.60;76.40;;;;;;9171649;19;20775;-59
2023/02/10 06:09:29;;;;;;;30.75;15.55;;;1.60;76.40;;;;;;9173702;19;20017;-60
2023/02/10 06:12:33;;;;;;;30.00;16.15;;;1.60;76.40;;;;;;9169016;19;20776;-61
2023/02/10 06:15:39;;;;;;;31.00;14.70;;;1.60;76.40;;;;;;9167305;19;20018;-61
2023/02/10 06:18:42;;;;;;;32.97;16.70;;;1.60;76.40;;;;;;9162103;19;20029;-61
2023/02/10 06:21:48;;;;;;;33.85;16.20;;;1.70;76.50;;;;;;9168955;19;20003;-60
2023/02/10 06:24:54;;;;;;;33.22;15.40;;;1.70;76.50;;;;;;9170130;19;20519;-60
2023/02/10 06:28:01;;;;;;;29.38;16.02;;;1.60;76.50;;;;;;9175035;19;20029;-62
2023/02/10 06:31:07;;;;;;;36.22;15.80;;;1.60;76.50;;;;;;9174709;19;20055;-62
2023/02/10 06:34:13;;;;;;;34.28;16.45;;;1.70;76.80;;;;;;9174232;19;20022;-60
2023/02/10 06:37:17;;;;;;;33.17;16.60;;;1.70;76.50;;;;;;9182388;19;20109;-61
2023/02/10 06:40:24;;;;;;;42.15;17.67;;;1.70;76.60;;;;;;9182546;19;20029;-60
2023/02/10 06:43:29;;;;;;;36.75;18.58;;;1.70;76.60;;;;;;9181497;19;20790;-62
2023/02/10 06:46:34;;;;;;;35.65;16.73;;;1.70;76.60;;;;;;9182662;19;20006;-64
2023/02/10 06:49:38;;;;;;;36.40;18.17;;;1.70;76.60;;;;;;9183210;19;20015;-61
2023/02/10 06:52:44;;;;;;;38.72;18.92;;;1.70;76.70;;;;;;9182924;19;20022;-62
2023/02/10 06:55:50;;;;;;;37.63;17.77;;;1.70;76.70;;;;;;9182198;19;20015;-61
2023/02/10 06:58:57;;;;;;;41.28;18.88;;;1.70;76.70;;;;;;9182962;19;20025;-62
2023/02/10 07:02:02;;;;;;;37.85;18.27;;;1.70;76.70;;;;;;9179581;19;20026;-60
2023/02/10 07:05:09;;;;;;;42.10;18.73;;;1.70;76.70;;;;;;9181603;19;20007;-60
2023/02/10 07:08:13;;;;;;;41.83;18.88;;;1.70;76.70;;;;;;9183706;19;20023;-60
2023/02/10 07:11:21;;;;;;;38.53;18.38;;;1.70;76.70;;;;;;9180029;19;20018;-60
2023/02/10 07:14:25;;;;;;;40.50;17.90;;;1.70;76.70;;;;;;9181526;19;20010;-61
2023/02/10 07:17:31;;;;;;;39.53;17.63;;;1.60;76.70;;;;;;9181458;19;20034;-62
2023/02/10 07:20:35;;;;;;;42.13;18.52;;;1.70;76.80;;;;;;9179496;19;20026;-60
2023/02/10 07:23:40;;;;;;;39.30;17.60;;;1.60;76.70;;;;;;9179972;19;20015;-63
2023/02/10 07:26:48;;;;;;;40.72;18.30;;;1.70;76.80;;;;;;9181741;19;20378;-61
2023/02/10 07:29:54;;;;;;;39.97;19.10;;;1.70;76.80;;;;;;9181856;19;20859;-61
2023/02/10 07:32:59;;;;;;;45.33;21.17;;;1.60;76.80;;;;;;9181580;19;20092;-61
2023/02/10 07:36:06;;;;;;;41.72;20.52;;;1.60;76.80;;;;;;9181285;19;20479;-62
2023/02/10 07:39:11;;;;;;;44.72;21.15;;;1.60;76.80;;;;;;9180632;19;20082;-62
2023/02/10 07:42:18;;;;;;;46.28;21.15;;;1.60;76.80;;;;;;9180183;19;20018;-61
2023/02/10 07:45:40;;;;;;;44.33;20.98;;;1.60;76.90;;;;;;9179586;19;20015;-62
2023/02/10 07:48:46;;;;;;;49.33;21.05;;;1.60;76.80;;;;;;9178302;19;20740;-62
2023/02/10 07:51:50;;;;;;;50.88;22.10;;;1.60;76.80;;;;;;9180449;19;20026;-63
2023/02/10 07:54:56;;;;;;;57.08;22.55;;;1.60;76.90;;;;;;9180749;19;20025;-63
2023/02/10 07:58:02;;;;;;;55.90;22.92;;;1.60;76.90;;;;;;9178023;19;20023;-62
2023/02/10 08:01:09;;;;;;;56.38;23.85;;;1.60;76.90;;;;;;9180551;19;20007;-63
2023/02/10 08:04:14;;;;;;;58.42;23.17;;;1.60;77.00;;;;;;9177477;19;20041;-62
2023/02/10 08:07:20;;;;;;;50.85;24.67;;;1.70;77.10;;;;;;9180967;19;20498;-62
2023/02/10 08:10:24;;;;;;;57.65;24.17;;;1.60;77.00;;;;;;9180444;19;20029;-63
2023/02/10 08:13:32;;;;;;;61.58;24.83;;;1.70;77.20;;;;;;9171864;19;20641;-64
2023/02/10 08:16:36;;;;;;;55.35;23.67;;;1.70;77.20;;;;;;9172666;19;20015;-63
2023/02/10 08:19:42;;;;;;;61.20;25.20;;;1.70;77.20;;;;;;9170327;19;20029;-62
2023/02/10 08:22:46;;;;;;;53.95;24.27;;;1.70;77.20;;;;;;9172921;19;20021;-63
2023/02/10 08:25:52;;;;;;;54.33;25.00;;;1.80;77.30;;;;;;9172558;19;20037;-61
2023/02/10 08:28:59;;;;;;;55.40;25.80;;;1.80;77.40;;;;;;9171151;19;20574;-61
2023/02/10 08:32:05;;;;;;;59.55;26.30;;;1.80;77.40;;;;;;9173678;19;20472;-61
2023/02/10 08:35:09;;;;;;;59.17;26.50;;;1.90;77.50;;;;;;9174229;19;20021;-62
2023/02/10 08:38:15;;;;;;;61.95;26.20;;;1.90;77.50;;;;;;9178503;19;20007;-62
2023/02/10 08:41:19;;;;;;;;;;;2.00;77.60;;;;;;9178651;19;20034;-63
2023/02/10 08:44:27;;;;;;;62.55;28.33;;;2.00;77.70;;;;;;9174154;19;19914;-62
2023/02/10 08:47:31;;;;;;;79.88;30.60;;;2.10;77.50;;;;;;9178978;19;20010;-64
2023/02/10 08:50:36;;;;;;;73.32;29.70;;;2.20;77.70;;;;;;9179147;19;20018;-62
2023/02/10 08:53:41;;;;;;;68.18;30.92;;;2.20;77.80;;;;;;9178408;19;20022;-63
2023/02/10 08:56:47;;;;;;;67.15;28.85;;;2.30;77.90;;;;;;9176873;19;20006;-62
2023/02/10 08:59:53;;;;;;;75.15;29.98;;;2.40;78.00;;;;;;9177023;19;20909;-63
2023/02/10 09:02:59;;;;;;;80.00;30.75;;;2.50;78.10;;;;;;9176278;19;20010;-63
2023/02/10 09:06:03;;;;;;;94.55;33.67;;;2.60;78.10;;;;;;9177650;19;20467;-62
2023/02/10 09:09:10;;;;;;;86.57;33.33;;;2.70;78.30;;;;;;9178289;19;20021;-62
2023/02/10 09:12:14;;;;;;;82.18;30.95;;;2.90;78.30;;;;;;9173871;19;20015;-61
2023/02/10 09:15:22;;;;;;;78.20;32.50;;;3.00;78.40;;;;;;9176313;19;20090;-60
2023/02/10 09:18:26;;;;;;;75.45;32.25;;;3.10;78.40;;;;;;9177503;19;20014;-61
2023/02/10 09:21:32;;;;;;;86.93;33.67;;;3.20;78.50;;;;;;9177937;19;20034;-64
2023/02/10 09:24:52;;;;;;;66.03;29.33;;;3.30;78.60;;;;;;9174613;19;20515;-64
2023/02/10 09:27:58;;;;;;;75.78;29.13;;;3.50;78.60;;;;;;9175791;19;20473;-62
2023/02/10 09:31:06;;;;;;;65.80;29.42;;;3.60;78.70;;;;;;9171739;19;20022;-63
2023/02/10 09:34:12;;;;;;;69.00;28.38;;;3.70;78.80;;;;;;9169069;19;20463;-63
2023/02/10 09:37:16;;;;;;;71.68;29.55;;;3.80;78.70;;;;;;9170224;19;20044;-64
2023/02/10 09:40:27;;;;;;;68.72;28.17;;;3.90;78.80;;;;;;9171290;19;20025;-62
2023/02/10 09:44:03;;;;;;;67.38;27.38;;;4.00;78.70;;;;;;9167637;19;20018;-62
2023/02/10 09:47:27;;;;;;;62.13;26.30;;;4.10;78.80;;;;;;9171040;19;20025;-63
2023/02/10 09:50:39;;;;;;;62.10;28.73;;;4.20;78.70;;;;;;9168647;19;20033;-62
2023/02/10 09:53:45;;;;;;;66.10;27.52;;;4.30;78.70;;;;;;9171590;19;20026;-63
2023/02/10 09:56:49;;;;;;;64.13;31.55;;;4.40;78.80;;;;;;9169245;19;20353;-62
2023/02/10 09:59:58;;;;;;;62.35;26.98;;;4.60;78.90;;;;;;9171632;19;20010;-63
2023/02/10 10:03:07;;;;;;;59.78;27.35;;;4.70;79.00;;;;;;9169237;19;20015;-65
2023/02/10 10:06:22;;;;;;;66.40;26.35;;;4.90;79.00;;;;;;9170886;19;20029;-65
2023/02/10 10:09:39;;;;;;;61.15;25.00;;;5.00;79.00;;;;;;9172822;19;20011;-64
2023/02/10 10:12:45;;;;;;;52.28;23.98;;;5.10;79.00;;;;;;9183152;19;20015;-62
2023/02/10 10:16:08;;;;;;;55.55;23.98;;;5.20;78.90;;;;;;9184048;19;20023;-62
2023/02/10 10:19:19;;;;;;;;;;;5.30;78.80;;;;;;9182347;19;20026;-64
2023/02/10 10:22:41;;;;;;;55.55;25.23;;;5.40;78.80;;;;;;9182308;19;19915;-65
2023/02/10 10:26:06;;;;;;;54.72;24.67;;;5.60;78.70;;;;;;9179171;19;20019;-63
2023/02/10 10:29:22;;;;;;;53.88;22.17;;;5.70;78.70;;;;;;9177735;19;20021;-62
2023/02/10 10:32:39;;;;;;;55.67;23.13;;;5.80;78.70;;;;;;9178741;19;20007;-63
2023/02/10 10:35:45;;;;;;;48.40;21.40;;;5.90;78.70;;;;;;9178405;19;20010;-65
2023/02/10 10:38:54;;;;;;;54.50;23.33;;;6.00;78.60;;;;;;9180158;19;20026;-63
2023/02/10 10:42:01;;;;;;;48.92;21.10;;;6.10;78.60;;;;;;9182754;19;20051;-64
2023/02/10 10:45:13;;;;;;;42.33;20.10;;;6.10;78.50;;;;;;9180737;19;20018;-65
2023/02/10 10:48:24;;;;;;;45.15;20.95;;;6.20;78.40;;;;;;9181368;19;20638;-65
2023/02/10 10:51:34;;;;;;;44.50;20.73;;;6.30;78.40;;;;;;9181585;19;20038;-65
2023/02/10 10:54:40;;;;;;;43.50;20.98;;;6.40;78.40;;;;;;9181003;19;20018;-64
2023/02/10 10:57:46;;;;;;;45.13;19.75;;;6.40;78.30;;;;;;9181480;19;20011;-65
2023/02/10 11:00:53;;;;;;;42.47;20.40;;;6.50;78.30;;;;;;9181837;19;20033;-65
2023/02/10 11:04:05;;;;;;;46.50;20.17;;;6.50;78.20;;;;;;9178869;19;20026;-65
2023/02/10 11:07:15;;;;;;;44.70;20.75;;;6.60;78.20;;;;;;9180426;19;20022;-64
2023/02/10 11:10:27;;;;;;;42.22;19.05;;;6.60;78.20;;;;;;9179198;19;20478;-66
2023/02/10 11:13:34;;;;;;;42.03;19.55;;;6.70;78.20;;;;;;9180226;19;20045;-65
2023/02/10 11:16:44;;;;;;;46.97;21.38;;;6.70;78.10;;;;;;9181640;19;20015;-66
2023/02/10 11:19:57;;;;;;;41.60;19.65;;;6.70;78.10;;;;;;9175802;19;20040;-67
2023/02/10 11:23:12;;;;;;;;;;;6.70;78.10;;;;;;9178457;19;20451;-65
2023/02/10 11:26:22;;;;;;;39.30;17.98;;;6.80;78.10;;;;;;9179942;19;19915;-65
2023/02/10 11:29:31;;;;;;;39.28;18.77;;;6.90;78.00;;;;;;9180579;19;20011;-65
2023/02/10 11:32:38;;;;;;;42.95;19.02;;;6.90;78.10;;;;;;9182296;19;20014;-67
2023/02/10 11:35:49;;;;;;;35.63;17.33;;;6.90;78.00;;;;;;9182473;19;20021;-63
2023/02/10 11:39:04;;;;;;;38.55;18.20;;;7.00;77.90;;;;;;9180652;19;20526;-65
2023/02/10 11:42:12;;;;;;;40.25;18.60;;;7.00;77.90;;;;;;9179897;19;20337;-62
2023/02/10 11:45:20;;;;;;;42.53;18.80;;;7.00;77.80;;;;;;9177913;19;20038;-65
2023/02/10 11:48:27;;;;;;;51.58;19.73;;;7.10;77.90;;;;;;9180884;19;20481;-63
2023/02/10 11:51:32;;;;;;;47.15;19.42;;;7.10;77.90;;;;;;9183669;19;20512;-65
2023/02/10 11:54:42;;;;;;;47.40;19.52;;;7.20;77.80;;;;;;9182032;19;20014;-62
2023/02/10 12:01:18;;;;;;;36.55;17.80;;;7.20;77.70;;;;;;9182128;19;20019;-62
2023/02/10 12:04:49;;;;;;;45.40;18.42;;;7.30;77.70;;;;;;9179075;19;20078;-62
2023/02/10 12:08:07;;;;;;;45.85;20.85;;;7.30;77.60;;;;;;9179640;19;20029;-64
2023/02/10 12:11:21;;;;;;;48.78;20.63;;;7.30;77.60;;;;;;9178529;19;20019;-63
2023/02/10 12:14:40;;;;;;;45.00;19.48;;;7.30;77.60;;;;;;9179638;19;20022;-63
2023/02/10 12:17:57;;;;;;;43.90;18.45;;;7.20;77.50;;;;;;9177823;19;20074;-62
2023/02/10 12:21:20;;;;;;;50.95;20.73;;;7.20;77.50;;;;;;9175877;19;20021;-62
2023/02/10 12:24:59;;;;;;;48.17;20.55;;;7.20;77.60;;;;;;9177792;19;20022;-64
2023/02/10 12:28:15;;;;;;;50.25;19.75;;;7.20;77.60;;;;;;9179666;19;20655;-61
2023/02/10 12:31:30;;;;;;;46.42;20.33;;;7.10;77.60;;;;;;9179803;19;20018;-64
2023/02/10 12:34:50;;;;;;;49.80;21.23;;;7.10;77.70;;;;;;9177683;19;20483;-63
2023/02/10 12:38:04;;;;;;;55.88;21.63;;;7.10;77.70;;;;;;9178378;19;20464;-63
2023/02/10 12:41:18;;;;;;;56.15;21.67;;;7.10;77.70;;;;;;9176953;19;20023;-63
2023/02/10 12:44:38;;;;;;;52.53;21.10;;;7.10;77.80;;;;;;9176198;19;20011;-63
2023/02/10 12:47:56;;;;;;;53.40;21.23;;;7.10;77.80;;;;;;9179239;19;20026;-64
2023/02/10 12:51:15;;;;;;;53.58;19.33;;;7.10;77.80;;;;;;9178797;19;20022;-64
2023/02/10 12:54:26;;;;;;;54.35;21.65;;;7.10;77.80;;;;;;9179111;19;20470;-64
2023/02/10 12:57:49;;;;;;;55.40;20.88;;;7.20;77.80;;;;;;9179845;19;20039;-62
2023/02/10 13:01:05;;;;;;;46.00;19.88;;;7.20;77.80;;;;;;9179315;19;20751;-66
2023/02/10 13:04:18;;;;;;;55.70;22.45;;;7.20;77.80;;;;;;9176657;19;20494;-61
2023/02/10 13:07:30;;;;;;;;;;;7.20;77.80;;;;;;9179646;19;20011;-64
2023/02/10 13:10:38;;;;;;;52.50;20.42;;;7.20;77.80;;;;;;9177301;19;20351;-63
2023/02/10 13:13:49;;;;;;;60.25;22.48;;;7.20;77.70;;;;;;9175028;19;20098;-62
2023/02/10 13:16:58;;;;;;;57.17;22.52;;;7.20;77.70;;;;;;9178786;19;20050;-63
2023/02/10 13:20:09;;;;;;;64.35;21.75;;;7.20;77.80;;;;;;9174149;19;20022;-64
2023/02/10 13:23:23;;;;;;;54.28;22.65;;;7.20;77.80;;;;;;9177265;19;20022;-62
2023/02/10 13:26:39;;;;;;;58.33;22.08;;;7.20;77.80;;;;;;9177745;19;20018;-64
2023/02/10 13:29:52;;;;;;;64.63;23.45;;;7.30;77.80;;;;;;9176382;19;20448;-62
2023/02/10 13:33:09;;;;;;;63.15;22.35;;;7.30;77.80;;;;;;9176431;19;20022;-63
2023/02/10 13:36:20;;;;;;;60.97;22.33;;;7.30;77.90;;;;;;9164802;19;20783;-62
2023/02/10 13:39:30;;;;;;;62.67;23.00;;;7.30;77.90;;;;;;9171597;19;20108;-63
2023/02/10 13:42:39;;;;;;;53.90;21.63;;;7.30;77.90;;;;;;9171153;19;20058;-63
2023/02/10 13:45:52;;;;;;;63.25;22.95;;;7.30;77.90;;;;;;9168955;19;20054;-64
2023/02/10 13:49:01;;;;;;;67.43;23.73;;;7.30;77.90;;;;;;9170219;19;20014;-63
2023/02/10 13:52:16;;;;;;;66.45;24.27;;;7.30;77.90;;;;;;9170201;19;20015;-63
2023/02/10 13:55:44;;;;;;;66.53;24.33;;;7.30;77.40;;;;;;9169437;19;20019;-63
2023/02/10 13:58:53;;;;;;;69.38;24.17;;;7.30;77.90;;;;;;9166577;19;20018;-62
2023/02/10 14:02:20;;;;;;;69.55;24.40;;;7.30;77.90;;;;;;9164852;19;20023;-64
2023/02/10 14:05:31;;;;;;;59.90;23.83;;;7.30;78.00;;;;;;9160478;19;20022;-62
2023/02/10 14:08:37;;;;;;;62.53;23.45;;;7.30;77.90;;;;;;9166574;19;20022;-62
2023/02/10 14:11:55;;;;;;;58.60;23.05;;;7.40;78.00;;;;;;9164685;19;20026;-63
2023/02/10 14:15:20;;;;;;;67.55;25.05;;;7.30;78.00;;;;;;9168965;19;20018;-62
2023/02/10 14:18:28;;;;;;;64.30;25.25;;;7.40;78.00;;;;;;9168404;19;20029;-64
2023/02/10 14:21:42;;;;;;;68.55;25.05;;;7.40;78.00;;;;;;9167074;19;20014;-62
2023/02/10 14:24:49;;;;;;;66.45;23.92;;;7.40;78.00;;;;;;9166656;19;20018;-62
2023/02/10 14:27:56;;;;;;;74.05;24.63;;;7.40;78.00;;;;;;9169068;19;20014;-63
2023/02/10 14:31:06;;;;;;;67.38;23.92;;;7.40;78.00;;;;;;9164295;19;20519;-64
2023/02/10 14:34:20;;;;;;;68.55;24.35;;;7.50;78.10;;;;;;9164227;19;20026;-63
2023/02/10 14:37:28;;;;;;;56.40;22.50;;;7.50;78.10;;;;;;9166865;19;20801;-63
2023/02/10 14:40:34;;;;;;;59.63;22.73;;;7.50;78.10;;;;;;9166120;19;20018;-63
2023/02/10 14:43:41;;;;;;;60.55;23.20;;;7.50;78.10;;;;;;9165589;19;20633;-63
2023/02/10 14:46:49;;;;;;;61.97;21.95;;;7.50;78.10;;;;;;9165779;19;20025;-62
2023/02/10 14:49:56;;;;;;;61.55;21.73;;;7.50;78.10;;;;;;9165991;19;20659;-61
2023/02/10 14:53:04;;;;;;;54.13;19.02;;;7.50;78.10;;;;;;9166463;19;20015;-64
2023/02/10 14:56:21;;;;;;;50.20;17.55;;;7.60;78.10;;;;;;9167404;19;20015;-65
2023/02/10 14:59:27;;;;;;;48.13;16.17;;;7.60;78.00;;;;;;9173908;19;20363;-65
2023/02/10 15:02:34;;;;;;;44.60;18.17;;;7.60;78.00;;;;;;9174168;19;20014;-64
2023/02/10 15:05:41;;;;;;;47.58;16.52;;;7.60;78.00;;;;;;9171564;19;20011;-64
2023/02/10 15:08:54;;;;;;;45.53;16.40;;;7.60;78.00;;;;;;9174881;19;20341;-62
2023/02/10 15:12:18;;;;;;;47.50;14.85;;;7.60;77.90;;;;;;9170579;19;20926;-64
2023/02/10 15:15:29;;;;;;;48.55;15.98;;;7.60;77.90;;;;;;9173174;19;20022;-63
2023/02/10 15:18:35;;;;;;;50.60;15.77;;;7.60;77.80;;;;;;9169663;19;20018;-65
2023/02/10 15:21:41;;;;;;;50.78;15.98;;;7.70;77.90;;;;;;9173234;19;20022;-64
2023/02/10 15:24:47;;;;;;;;;;;7.70;77.80;;;;;;9171944;19;20783;-63
2023/02/10 15:27:54;;;;;;;47.88;15.50;;;7.70;77.80;;;;;;9169875;19;19918;-62
2023/02/10 15:31:02;;;;;;;44.08;14.43;;;7.70;77.70;;;;;;9173391;19;20026;-63
2023/02/10 15:34:21;;;;;;;38.17;13.85;;;7.70;77.70;;;;;;9171775;19;20018;-64
2023/02/10 15:37:28;;;;;;;46.95;13.80;;;7.70;77.60;;;;;;9172029;19;20035;-63
2023/02/10 15:40:36;;;;;;;41.17;13.02;;;7.70;77.60;;;;;;9172662;19;20033;-63
2023/02/10 15:43:49;;;;;;;33.55;11.40;;;7.70;77.60;;;;;;9172546;19;20025;-63
2023/02/10 15:46:56;;;;;;;37.30;11.77;;;7.70;77.50;;;;;;9173186;19;20018;-64
2023/02/10 15:50:00;;;;;;;29.52;9.52;;;7.70;77.50;;;;;;9172559;19;20022;-62
2023/02/10 15:53:11;;;;;;;32.15;11.52;;;7.70;77.40;;;;;;9172234;19;20348;-63
2023/02/10 15:56:17;;;;;;;33.35;10.48;;;7.60;77.30;;;;;;9172409;19;20014;-62
2023/02/10 15:59:27;;;;;;;36.20;11.65;;;7.60;77.30;;;;;;9171416;19;20021;-62
2023/02/10 16:02:34;;;;;;;37.28;10.68;;;7.60;77.20;;;;;;9170286;19;20748;-65
2023/02/10 16:05:41;;;;;;;29.05;10.18;;;7.70;77.30;;;;;;9168917;19;20014;-63
2023/02/10 16:08:45;;;;;;;33.60;10.38;;;7.60;77.20;;;;;;9170152;19;20404;-64
2023/02/10 16:11:54;;;;;;;31.58;9.73;;;7.60;77.20;;;;;;9168711;19;20019;-63
2023/02/10 16:14:58;;;;;;;37.53;10.45;;;7.60;77.10;;;;;;9171714;19;20019;-63
2023/02/10 16:18:05;;;;;;;33.30;10.68;;;7.60;77.10;;;;;;9171160;19;20011;-63